Dobbins Air Reserve Base Airport
KMGE : now visible

Airfield :











YOU CAN JOIN US ON...

 
LOGIN :

Register | Disclaimer

   EN    FR    IT 

 









Legend :    VFR   Marginal VFR   IFR   Intensive IFR   Very Intensive IFR
Visi :
Ceiling :
>= 8 km
>= 3000ft
5 to 8 km
1000 to 3000 ft
1500m to 5 km
500 to 1000 ft
800 to 1500m
200 to 500 ft
< 800m
< 200 ft
Symbols :   Thunderstorms  Fog  Heavy snow  Heavy precipitations  Wind > 20 kt






- Airport Elevation : 1068 ft


KMGE - Dobbins Air Reserve Base

CURRENT METAR :
  • 041556Z 00000KT 10SM SCT028 28/21 A3001 RMK AO2A SLP153 T02830205 $

EXPIRED METARs :
  • 041456Z 18003KT 10SM FEW024 27/21 A3002 RMK AO2A SLP157 T02680211 52010 $
  • 041356Z 25002KT 10SM FEW015 25/21 A3000 RMK AO2A SLP150 T02480207 $

TAF TAF KMGE
Valid from the 04 at 13:00 until the 05 at 19:00 UTC


041300Z 0413/0519 26006KT 9999 FEW012 SCT250 QNH2997INS
BECMG 0417/0418 21009KT 9999 VCTS SCT030CB BKN250 QNH2992INS
BECMG 0502/0503 22009KT 9999 NSW SCT250 QNH2997INS TX32/0421Z TN20/0511Z
KZTL FIR / North America



MET'MAP, your aeronautical weather chart ! - Copyright ORBIFLY December 2007 - Disclaimer

ORBIFLY MET'MAP TEAM :

Programming & Development : Alexandra Zaïnal
Concept & original design : Baudouin d'Aumeries
Assistance for programming : Marc-Olivier Méhu
Technical & hardware support : Manuel Goepfert

Contact : metmap@orbifly.com




SOURCES & CREDITS :

   NOAA       Earth
Advisory